createdAt,value
2019-05-19T00:02:12.832Z,15.63
2019-05-19T00:04:42.612Z,15.64
2019-05-19T00:07:12.565Z,15.51
2019-05-19T00:09:42.291Z,15.51
2019-05-19T00:12:11.994Z,15.45
2019-05-19T00:14:41.662Z,15.45
2019-05-19T00:17:11.463Z,15.59
2019-05-19T00:19:41.298Z,15.67
2019-05-19T00:22:11.118Z,15.60
2019-05-19T00:24:41.008Z,15.55
2019-05-19T00:27:10.745Z,15.65
2019-05-19T00:29:40.701Z,15.56
2019-05-19T00:32:10.488Z,15.67
2019-05-19T00:34:40.309Z,15.60
2019-05-19T00:37:10.034Z,15.64
2019-05-19T00:39:39.838Z,15.56
2019-05-19T00:42:09.711Z,15.40
2019-05-19T00:44:39.448Z,15.36
2019-05-19T00:47:09.626Z,15.46
2019-05-19T00:49:41.636Z,15.37
2019-05-19T00:52:11.034Z,15.26
2019-05-19T00:54:40.905Z,15.23
2019-05-19T00:57:12.248Z,15.23
2019-05-19T00:59:43.002Z,15.22
2019-05-19T01:02:12.850Z,15.21
2019-05-19T01:04:42.712Z,15.19
2019-05-19T01:07:12.573Z,15.18
2019-05-19T01:09:42.400Z,15.22
2019-05-19T01:12:31.464Z,15.16
2019-05-19T01:15:01.210Z,15.08
2019-05-19T01:17:31.016Z,15.08
2019-05-19T01:20:00.851Z,14.96
2019-05-19T01:22:30.597Z,14.93
2019-05-19T01:25:00.371Z,14.94
2019-05-19T01:27:30.207Z,14.90
2019-05-19T01:30:00.037Z,14.90
2019-05-19T01:32:30.297Z,14.94
2019-05-19T01:34:59.967Z,14.91
2019-05-19T01:37:29.831Z,14.94
2019-05-19T01:39:59.758Z,14.95
2019-05-19T01:42:29.507Z,15.00
2019-05-19T01:44:59.228Z,15.00
2019-05-19T01:47:28.916Z,15.00
2019-05-19T01:50:16.848Z,15.03
2019-05-19T01:52:31.095Z,15.03
2019-05-19T01:55:00.859Z,15.01
2019-05-19T01:57:30.617Z,14.96
2019-05-19T02:00:00.368Z,14.90
2019-05-19T02:02:30.063Z,14.79
2019-05-19T02:04:59.768Z,14.81
2019-05-19T02:07:29.644Z,14.83
2019-05-19T02:10:00.243Z,14.87
2019-05-19T02:12:30.159Z,14.80
2019-05-19T02:14:59.984Z,14.73
2019-05-19T02:17:29.837Z,14.70
2019-05-19T02:19:59.780Z,14.71
2019-05-19T02:22:29.837Z,14.70
2019-05-19T02:24:59.723Z,14.65
2019-05-19T02:27:29.524Z,14.66
2019-05-19T02:29:59.296Z,14.66
2019-05-19T02:32:29.136Z,14.56
2019-05-19T02:34:58.872Z,14.50
2019-05-19T02:37:28.683Z,14.51
2019-05-19T02:39:58.470Z,14.49
2019-05-19T02:42:31.849Z,14.49
2019-05-19T02:45:04.954Z,14.48
2019-05-19T02:47:35.678Z,14.57
2019-05-19T02:50:07.626Z,14.78
2019-05-19T02:52:39.887Z,14.65
2019-05-19T02:55:10.887Z,14.60
2019-05-19T02:57:42.665Z,14.80
2019-05-19T03:00:13.619Z,14.78
2019-05-19T03:02:43.373Z,14.72
2019-05-19T03:05:13.824Z,14.66
2019-05-19T03:07:43.509Z,14.71
2019-05-19T03:10:13.626Z,14.75
2019-05-19T03:12:43.420Z,14.64
2019-05-19T03:15:13.392Z,14.77
2019-05-19T03:17:43.158Z,14.80
2019-05-19T03:20:12.989Z,14.78
2019-05-19T03:22:42.786Z,14.58
2019-05-19T03:25:12.822Z,14.74
2019-05-19T03:27:42.645Z,14.63
2019-05-19T03:30:30.770Z,14.63
2019-05-19T03:33:02.074Z,14.56
2019-05-19T03:35:31.859Z,14.56
2019-05-19T03:38:01.590Z,14.72
2019-05-19T03:40:31.250Z,14.57
2019-05-19T03:43:01.054Z,14.49
2019-05-19T03:45:30.825Z,14.52
2019-05-19T03:48:00.671Z,14.55
2019-05-19T03:50:30.425Z,14.54
2019-05-19T03:53:00.843Z,14.66
2019-05-19T03:55:30.525Z,14.63
2019-05-19T03:58:00.317Z,14.58
2019-05-19T04:00:30.196Z,14.64
2019-05-19T04:02:59.902Z,14.64
2019-05-19T04:05:29.711Z,14.58
2019-05-19T04:07:59.679Z,14.58
2019-05-19T04:10:29.487Z,14.61
2019-05-19T04:12:59.182Z,14.59
2019-05-19T04:15:28.912Z,14.68
2019-05-19T04:17:58.657Z,14.78
2019-05-19T04:20:28.331Z,14.73
2019-05-19T04:22:58.048Z,14.74
2019-05-19T04:25:27.776Z,14.79
2019-05-19T04:27:57.588Z,14.98
2019-05-19T04:30:27.437Z,14.96
2019-05-19T04:32:57.143Z,14.98
2019-05-19T04:35:27.050Z,15.05
2019-05-19T04:37:57.025Z,15.10
2019-05-19T04:40:26.727Z,15.20
2019-05-19T04:42:56.534Z,15.22
2019-05-19T04:45:26.362Z,15.17
2019-05-19T04:47:56.159Z,15.23
2019-05-19T04:50:26.119Z,15.29
2019-05-19T04:52:55.791Z,15.30
2019-05-19T04:55:25.601Z,15.35
2019-05-19T04:57:55.383Z,15.45
2019-05-19T05:00:25.478Z,15.50
2019-05-19T05:02:55.176Z,15.54
2019-05-19T05:05:24.866Z,15.56
2019-05-19T05:07:54.660Z,15.65
2019-05-19T05:10:24.650Z,15.76
2019-05-19T05:12:54.356Z,15.76
2019-05-19T05:15:24.168Z,15.85
2019-05-19T05:17:53.875Z,15.96
2019-05-19T05:20:23.754Z,16.08
2019-05-19T05:22:53.577Z,16.05
2019-05-19T05:25:23.417Z,16.01
2019-05-19T05:27:53.209Z,16.00
2019-05-19T05:30:23.046Z,15.97
2019-05-19T05:32:52.894Z,15.98
2019-05-19T05:35:22.617Z,16.03
2019-05-19T05:37:52.438Z,16.00
2019-05-19T05:40:22.202Z,16.08
2019-05-19T05:42:52.109Z,16.19
2019-05-19T05:45:21.932Z,16.22
2019-05-19T05:47:51.755Z,16.29
2019-05-19T05:50:21.883Z,16.50
2019-05-19T05:52:51.931Z,16.45
2019-05-19T05:55:21.686Z,16.54
2019-05-19T05:57:51.618Z,16.50
2019-05-19T06:00:21.878Z,16.26
2019-05-19T06:02:51.642Z,16.36
2019-05-19T06:05:21.449Z,16.63
2019-05-19T06:07:51.324Z,16.60
2019-05-19T06:10:21.164Z,16.79
2019-05-19T06:12:51.275Z,16.98
2019-05-19T06:15:21.026Z,17.07
2019-05-19T06:17:50.933Z,17.10
2019-05-19T06:20:20.709Z,17.04
2019-05-19T06:22:56.253Z,17.11
2019-05-19T06:25:22.245Z,17.13
2019-05-19T06:27:52.109Z,17.18
2019-05-19T06:30:23.623Z,17.22
2019-05-19T06:32:55.132Z,17.22
2019-05-19T06:35:25.181Z,17.16
2019-05-19T06:37:54.931Z,17.19
2019-05-19T06:40:24.877Z,17.21
2019-05-19T06:42:54.696Z,17.27
2019-05-19T06:45:24.687Z,17.33
2019-05-19T06:47:54.482Z,17.35
2019-05-19T06:50:24.275Z,17.51
2019-05-19T06:52:54.134Z,17.49
2019-05-19T06:55:25.319Z,17.49
2019-05-19T06:57:56.732Z,17.49
2019-05-19T07:00:26.605Z,17.72
2019-05-19T07:02:56.473Z,17.73
2019-05-19T07:05:26.642Z,17.94
2019-05-19T07:07:56.665Z,17.92
2019-05-19T07:10:26.421Z,18.01
2019-05-19T07:12:56.207Z,17.90
2019-05-19T07:15:25.888Z,17.85
2019-05-19T07:17:55.649Z,17.85
2019-05-19T07:20:25.493Z,17.88
2019-05-19T07:22:55.406Z,17.79
2019-05-19T07:25:25.751Z,17.72
2019-05-19T07:27:55.467Z,17.79
2019-05-19T07:30:25.400Z,17.81
2019-05-19T07:32:55.161Z,17.79
2019-05-19T07:35:25.342Z,17.88
2019-05-19T07:37:55.104Z,18.06
2019-05-19T07:40:24.837Z,17.97
2019-05-19T07:42:54.559Z,18.08
2019-05-19T07:45:24.635Z,18.04
2019-05-19T07:47:54.409Z,18.18
2019-05-19T07:50:24.292Z,18.26
2019-05-19T07:52:54.188Z,18.40
2019-05-19T07:55:23.941Z,18.57
2019-05-19T07:57:53.641Z,18.71
2019-05-19T08:00:23.584Z,18.87
2019-05-19T08:02:53.526Z,18.99
2019-05-19T08:05:23.311Z,19.21
2019-05-19T08:07:53.219Z,19.34
2019-05-19T08:10:23.015Z,19.46
2019-05-19T08:12:52.988Z,19.56
2019-05-19T08:15:22.851Z,19.61
2019-05-19T08:17:52.714Z,19.44
2019-05-19T08:20:22.540Z,19.46
2019-05-19T08:22:52.404Z,19.44
2019-05-19T08:25:22.115Z,19.31
2019-05-19T08:27:51.814Z,19.32
2019-05-19T08:30:21.828Z,19.45
2019-05-19T08:32:54.736Z,19.77
2019-05-19T08:35:24.482Z,19.82
2019-05-19T08:37:54.233Z,19.98
2019-05-19T08:40:23.922Z,19.96
2019-05-19T08:42:53.752Z,20.03
2019-05-19T08:45:23.726Z,20.22
2019-05-19T08:47:53.474Z,20.44
2019-05-19T08:50:23.213Z,20.53
2019-05-19T08:52:53.072Z,20.44
2019-05-19T08:55:22.848Z,20.66
2019-05-19T08:57:52.561Z,20.89
2019-05-19T09:00:22.387Z,20.99
2019-05-19T09:02:52.339Z,21.08
2019-05-19T09:05:22.170Z,21.23
2019-05-19T09:07:51.904Z,21.27
2019-05-19T09:10:22.122Z,21.43
2019-05-19T09:12:51.797Z,21.62
2019-05-19T09:15:21.498Z,21.42
2019-05-19T09:17:54.110Z,21.55
2019-05-19T09:20:22.815Z,21.11
2019-05-19T09:22:53.696Z,20.97
2019-05-19T09:25:24.029Z,21.01
2019-05-19T09:27:54.180Z,20.86
2019-05-19T09:30:23.967Z,21.04
2019-05-19T09:32:53.776Z,21.20
2019-05-19T09:35:23.634Z,21.41
2019-05-19T09:37:53.404Z,21.26
2019-05-19T09:40:26.389Z,21.35
2019-05-19T09:42:54.715Z,21.57
2019-05-19T09:45:24.528Z,21.68
2019-05-19T09:47:54.340Z,21.78
2019-05-19T09:50:24.257Z,21.68
2019-05-19T09:52:54.013Z,21.76
2019-05-19T09:55:23.713Z,21.77
2019-05-19T09:57:53.543Z,21.72
2019-05-19T10:00:23.661Z,21.62
2019-05-19T10:02:53.510Z,21.73
2019-05-19T10:05:23.325Z,22.02
2019-05-19T10:07:52.993Z,22.21
2019-05-19T10:10:36.228Z,22.34
2019-05-19T10:13:06.013Z,22.36
2019-05-19T10:15:35.768Z,22.65
2019-05-19T10:18:05.842Z,22.66
2019-05-19T10:20:35.540Z,22.76
2019-05-19T10:23:05.337Z,22.92
2019-05-19T10:25:35.119Z,22.88
2019-05-19T10:28:04.819Z,22.92
2019-05-19T10:30:34.567Z,22.84
2019-05-19T10:33:04.338Z,22.94
2019-05-19T10:35:34.078Z,22.79
2019-05-19T10:38:03.823Z,22.78
2019-05-19T10:40:33.620Z,22.79
2019-05-19T10:43:03.339Z,22.71
2019-05-19T10:45:33.237Z,22.92
2019-05-19T10:48:03.050Z,23.08
2019-05-19T10:50:32.751Z,22.98
2019-05-19T10:53:02.539Z,23.07
2019-05-19T10:55:36.615Z,22.96
2019-05-19T10:58:03.631Z,22.90
2019-05-19T11:00:33.738Z,22.86
2019-05-19T11:03:05.260Z,22.72
2019-05-19T11:05:35.085Z,22.81
2019-05-19T11:08:05.277Z,22.55
2019-05-19T11:10:35.022Z,22.48
2019-05-19T11:13:04.961Z,22.68
2019-05-19T11:15:34.702Z,22.94
2019-05-19T11:18:06.454Z,22.84
2019-05-19T11:20:35.938Z,22.98
2019-05-19T11:23:05.816Z,23.10
2019-05-19T11:25:35.471Z,22.96
2019-05-19T11:28:05.332Z,22.99
2019-05-19T11:30:35.168Z,22.97
2019-05-19T11:33:05.087Z,22.75
2019-05-19T11:35:34.843Z,22.55
2019-05-19T11:38:04.926Z,22.57
2019-05-19T11:40:34.674Z,22.59
2019-05-19T11:43:04.684Z,22.87
2019-05-19T11:45:34.609Z,23.04
2019-05-19T11:48:04.509Z,23.14
2019-05-19T11:50:34.717Z,23.40
2019-05-19T11:53:04.537Z,23.33
2019-05-19T11:55:34.205Z,23.41
2019-05-19T11:58:04.052Z,23.32
2019-05-19T12:00:33.874Z,23.39
2019-05-19T12:03:03.587Z,23.66
2019-05-19T12:05:33.458Z,23.62
2019-05-19T12:08:03.356Z,23.53
2019-05-19T12:10:33.162Z,23.20
2019-05-19T12:13:02.885Z,23.44
2019-05-19T12:15:32.566Z,23.58
2019-05-19T12:18:02.242Z,23.47
2019-05-19T12:20:32.032Z,23.32
2019-05-19T12:23:01.722Z,23.16
2019-05-19T12:25:31.620Z,23.14
2019-05-19T12:28:01.461Z,23.46
2019-05-19T12:30:32.335Z,23.73
2019-05-19T12:33:02.354Z,23.83
2019-05-19T12:35:32.339Z,23.81
2019-05-19T12:38:02.142Z,23.76
2019-05-19T12:40:33.258Z,23.58
2019-05-19T12:43:03.009Z,23.20
2019-05-19T12:45:32.854Z,23.37
2019-05-19T12:48:03.123Z,23.20
2019-05-19T12:50:32.847Z,23.26
2019-05-19T12:53:03.490Z,23.61
2019-05-19T12:55:33.598Z,24.03
2019-05-19T12:58:03.668Z,24.28
2019-05-19T13:00:33.465Z,24.36
2019-05-19T13:03:03.354Z,23.94
2019-05-19T13:05:33.034Z,24.08
2019-05-19T13:08:02.883Z,23.63
2019-05-19T13:10:32.686Z,23.77
2019-05-19T13:13:03.318Z,24.04
2019-05-19T13:15:32.998Z,24.12
2019-05-19T13:18:02.716Z,24.45
2019-05-19T13:20:32.503Z,24.79
2019-05-19T13:23:02.990Z,24.70
2019-05-19T13:25:32.708Z,24.45
2019-05-19T13:28:02.583Z,24.49
2019-05-19T13:30:32.273Z,23.99
2019-05-19T13:33:02.026Z,24.02
2019-05-19T13:35:31.771Z,24.24
2019-05-19T13:38:01.620Z,24.12
2019-05-19T13:40:33.083Z,23.86
2019-05-19T13:43:02.886Z,23.94
2019-05-19T13:45:32.759Z,24.08
2019-05-19T13:48:02.641Z,24.15
2019-05-19T13:50:32.458Z,24.64
2019-05-19T13:53:02.439Z,24.88
2019-05-19T13:55:32.183Z,25.05
2019-05-19T13:58:03.530Z,25.25
2019-05-19T14:00:33.614Z,25.32
2019-05-19T14:03:03.511Z,25.54
2019-05-19T14:05:34.407Z,25.87
2019-05-19T14:08:04.365Z,26.25
2019-05-19T14:10:34.525Z,26.58
2019-05-19T14:13:04.701Z,26.78
2019-05-19T14:15:34.444Z,26.78
2019-05-19T14:18:04.323Z,27.06
2019-05-19T14:20:33.978Z,27.16
2019-05-19T14:23:03.698Z,25.71
2019-05-19T14:25:33.382Z,25.85
2019-05-19T14:28:03.292Z,26.08
2019-05-19T14:30:33.119Z,26.14
2019-05-19T14:33:03.033Z,26.20
2019-05-19T14:35:32.815Z,25.90
2019-05-19T14:38:02.567Z,25.33
2019-05-19T14:40:32.289Z,24.13
2019-05-19T14:43:02.944Z,23.40
2019-05-19T14:45:33.104Z,22.95
2019-05-19T14:48:03.359Z,22.65
2019-05-19T14:50:33.128Z,22.51
2019-05-19T14:53:03.011Z,22.27
2019-05-19T14:55:32.910Z,22.31
2019-05-19T14:58:02.807Z,22.39
2019-05-19T15:00:32.566Z,22.66
2019-05-19T15:03:02.455Z,23.23
2019-05-19T15:05:33.254Z,23.67
2019-05-19T15:08:03.122Z,23.99
2019-05-19T15:10:32.860Z,24.53
2019-05-19T15:13:02.694Z,24.37
2019-05-19T15:15:32.520Z,24.01
2019-05-19T15:18:02.354Z,23.83
2019-05-19T15:20:32.112Z,23.70
2019-05-19T15:23:01.843Z,23.57
2019-05-19T15:25:31.487Z,23.37
2019-05-19T15:28:05.028Z,23.29
2019-05-19T15:30:32.766Z,22.95
2019-05-19T15:33:02.548Z,22.92
2019-05-19T15:35:32.336Z,22.96
2019-05-19T15:38:02.055Z,22.71
2019-05-19T15:40:31.802Z,22.26
2019-05-19T15:43:01.602Z,22.13
2019-05-19T15:45:35.634Z,22.13
2019-05-19T15:48:05.716Z,22.10
2019-05-19T15:50:35.544Z,22.04
2019-05-19T15:53:05.475Z,22.01
2019-05-19T15:55:35.217Z,22.03
2019-05-19T15:58:16.154Z,22.04
2019-05-19T16:00:36.446Z,22.13
2019-05-19T16:03:06.642Z,22.14
2019-05-19T16:05:36.476Z,22.17
2019-05-19T16:08:06.501Z,22.27
2019-05-19T16:10:36.279Z,22.26
2019-05-19T16:13:07.729Z,22.33
2019-05-19T16:15:37.690Z,22.44
2019-05-19T16:18:07.494Z,22.48
2019-05-19T16:20:37.337Z,22.50
2019-05-19T16:23:07.027Z,22.42
2019-05-19T16:25:36.856Z,22.39
2019-05-19T16:28:07.312Z,22.45
2019-05-19T16:30:37.221Z,22.26
2019-05-19T16:33:07.826Z,22.19
2019-05-19T16:35:37.506Z,22.04
2019-05-19T16:38:07.345Z,21.89
2019-05-19T16:40:37.179Z,21.76
2019-05-19T16:43:06.986Z,21.60
2019-05-19T16:45:36.889Z,21.42
2019-05-19T16:48:06.702Z,21.31
2019-05-19T16:50:36.431Z,21.18
2019-05-19T16:53:06.145Z,21.17
2019-05-19T16:55:35.965Z,21.01
2019-05-19T16:58:20.176Z,21.02
2019-05-19T17:00:37.479Z,20.90
2019-05-19T17:03:08.624Z,20.95
2019-05-19T17:05:38.447Z,20.97
2019-05-19T17:08:08.504Z,20.96
2019-05-19T17:10:38.424Z,20.96
2019-05-19T17:13:08.239Z,21.01
2019-05-19T17:15:38.044Z,21.06
2019-05-19T17:18:08.352Z,20.98
2019-05-19T17:20:38.318Z,20.95
2019-05-19T17:23:08.179Z,20.93
2019-05-19T17:25:37.921Z,20.89
2019-05-19T17:28:07.554Z,20.84
2019-05-19T17:30:37.318Z,20.75
2019-05-19T17:33:07.055Z,20.56
2019-05-19T17:35:36.949Z,20.46
2019-05-19T17:38:06.721Z,20.45
2019-05-19T17:40:38.227Z,20.41
2019-05-19T17:43:08.206Z,20.28
2019-05-19T17:45:38.074Z,20.23
2019-05-19T17:48:14.561Z,20.11
2019-05-19T17:50:40.969Z,20.07
2019-05-19T17:53:10.817Z,20.09
2019-05-19T17:55:42.183Z,20.04
2019-05-19T17:58:11.901Z,20.06
2019-05-19T18:00:44.638Z,19.92
2019-05-19T18:03:15.541Z,19.71
2019-05-19T18:05:45.328Z,19.58
2019-05-19T18:08:15.310Z,19.54
2019-05-19T18:10:45.063Z,19.49
2019-05-19T18:13:14.773Z,19.32
2019-05-19T18:15:44.529Z,19.28
2019-05-19T18:18:14.474Z,19.27
2019-05-19T18:20:46.926Z,19.28
2019-05-19T18:23:15.770Z,19.21
2019-05-19T18:25:45.645Z,19.13
2019-05-19T18:28:15.499Z,19.09
2019-05-19T18:30:45.319Z,18.99
2019-05-19T18:33:15.045Z,18.91
2019-05-19T18:35:45.008Z,18.97
2019-05-19T18:38:14.634Z,18.83
2019-05-19T18:40:44.390Z,18.86
2019-05-19T18:43:14.144Z,18.71
2019-05-19T18:45:43.862Z,18.63
2019-05-19T18:48:13.599Z,18.65
2019-05-19T18:50:43.400Z,18.58
2019-05-19T18:53:13.109Z,18.51
2019-05-19T18:55:42.769Z,18.45
2019-05-19T18:58:12.468Z,18.49
2019-05-19T19:00:42.709Z,18.53
2019-05-19T19:03:13.077Z,18.37
2019-05-19T19:05:42.965Z,18.29
2019-05-19T19:08:12.839Z,18.32
2019-05-19T19:10:42.493Z,18.22
2019-05-19T19:13:12.304Z,18.31
2019-05-19T19:15:42.224Z,18.24
2019-05-19T19:18:11.937Z,18.24
2019-05-19T19:20:41.610Z,18.14
2019-05-19T19:23:11.431Z,18.03
2019-05-19T19:25:41.117Z,17.90
2019-05-19T19:28:10.981Z,17.79
2019-05-19T19:30:40.655Z,17.77
2019-05-19T19:33:10.429Z,17.77
2019-05-19T19:35:40.122Z,17.69
2019-05-19T19:38:09.977Z,17.76
2019-05-19T19:40:39.643Z,17.59
2019-05-19T19:43:09.628Z,17.60
2019-05-19T19:45:39.418Z,17.68
2019-05-19T19:48:09.240Z,17.61
2019-05-19T19:50:39.021Z,17.57
2019-05-19T19:53:08.851Z,17.59
2019-05-19T19:55:38.586Z,17.55
2019-05-19T19:58:08.507Z,17.50
2019-05-19T20:00:44.315Z,17.63
2019-05-19T20:03:14.247Z,17.56
2019-05-19T20:05:44.959Z,17.41
2019-05-19T20:08:15.023Z,17.48
2019-05-19T20:10:44.807Z,17.48
2019-05-19T20:13:14.551Z,17.49
2019-05-19T20:15:44.382Z,17.36
2019-05-19T20:18:14.173Z,17.38
2019-05-19T20:20:44.121Z,17.39
2019-05-19T20:23:13.937Z,17.36
2019-05-19T20:25:43.760Z,17.30
2019-05-19T20:28:13.569Z,17.26
2019-05-19T20:30:44.446Z,17.23
2019-05-19T20:33:14.279Z,17.18
2019-05-19T20:35:44.099Z,17.19
2019-05-19T20:38:14.018Z,17.10
2019-05-19T20:40:44.367Z,17.11
2019-05-19T20:43:14.093Z,17.00
2019-05-19T20:45:45.449Z,16.98
2019-05-19T20:48:15.582Z,16.93
2019-05-19T20:50:45.291Z,17.00
2019-05-19T20:53:15.122Z,16.97
2019-05-19T20:55:44.784Z,16.95
2019-05-19T20:58:14.503Z,16.89
2019-05-19T21:00:50.537Z,17.00
2019-05-19T21:03:15.592Z,16.93
2019-05-19T21:05:45.328Z,16.96
2019-05-19T21:08:15.096Z,16.88
2019-05-19T21:10:44.821Z,16.90
2019-05-19T21:13:14.897Z,16.95
2019-05-19T21:15:44.579Z,17.02
2019-05-19T21:18:14.365Z,16.92
2019-05-19T21:20:44.339Z,16.81
2019-05-19T21:23:14.046Z,16.88
2019-05-19T21:25:43.713Z,16.82
2019-05-19T21:28:13.416Z,16.70
2019-05-19T21:30:43.269Z,16.65
2019-05-19T21:33:12.936Z,16.64
2019-05-19T21:35:42.710Z,16.65
2019-05-19T21:38:12.422Z,16.66
2019-05-19T21:40:42.101Z,16.62
2019-05-19T21:43:11.834Z,16.61
2019-05-19T21:45:41.549Z,16.58
2019-05-19T21:48:11.385Z,16.64
2019-05-19T21:50:41.137Z,16.67
2019-05-19T21:53:10.927Z,16.45
2019-05-19T21:55:40.670Z,16.43
2019-05-19T21:58:10.399Z,16.45
2019-05-19T22:00:41.511Z,16.42
2019-05-19T22:03:11.361Z,16.44
2019-05-19T22:05:52.779Z,16.50
2019-05-19T22:08:14.185Z,16.41
2019-05-19T22:10:43.998Z,16.33
2019-05-19T22:13:13.813Z,16.39
2019-05-19T22:15:43.599Z,16.40
2019-05-19T22:18:13.274Z,16.34
2019-05-19T22:20:43.067Z,16.29
2019-05-19T22:23:12.793Z,16.19
2019-05-19T22:25:42.518Z,16.16
2019-05-19T22:28:12.175Z,16.14
2019-05-19T22:30:41.941Z,16.17
2019-05-19T22:33:11.764Z,16.14
2019-05-19T22:35:42.261Z,16.20
2019-05-19T22:38:11.934Z,16.09
2019-05-19T22:40:41.731Z,16.04
2019-05-19T22:43:11.396Z,15.97
2019-05-19T22:45:41.093Z,16.00
2019-05-19T22:48:10.865Z,16.00
2019-05-19T22:50:40.574Z,16.03
2019-05-19T22:53:10.350Z,16.06
2019-05-19T22:55:40.991Z,16.05
2019-05-19T22:58:10.762Z,16.06
2019-05-19T23:00:40.515Z,16.01
2019-05-19T23:03:10.276Z,16.02
2019-05-19T23:05:40.009Z,15.98
2019-05-19T23:08:09.707Z,15.99
2019-05-19T23:10:39.528Z,15.97
2019-05-19T23:13:09.395Z,15.94
2019-05-19T23:15:39.122Z,15.79
2019-05-19T23:18:09.115Z,15.68
2019-05-19T23:20:39.094Z,15.68
2019-05-19T23:23:08.912Z,15.67
2019-05-19T23:25:38.572Z,15.65
2019-05-19T23:28:08.395Z,15.67
2019-05-19T23:30:38.253Z,15.66
2019-05-19T23:33:07.892Z,15.67
2019-05-19T23:35:37.619Z,15.70
2019-05-19T23:38:07.485Z,15.66
2019-05-19T23:40:37.243Z,15.59
2019-05-19T23:43:07.087Z,15.57
2019-05-19T23:45:36.818Z,15.58
2019-05-19T23:48:06.458Z,15.56
2019-05-19T23:50:36.398Z,15.46
2019-05-19T23:53:06.214Z,15.44
2019-05-19T23:55:35.970Z,15.50
2019-05-19T23:58:05.622Z,15.49
